sensor_id;sensor_type;location;lat;lon;timestamp;P1;durP1;ratioP1;P2;durP2;ratioP2
57891;SDS011;43708;48.828;9.166;2023-04-06T00:01:27;0.77;;;0.70;;
57891;SDS011;43708;48.828;9.166;2023-04-06T00:03:52;1.98;;;0.80;;
57891;SDS011;43708;48.828;9.166;2023-04-06T00:06:18;0.80;;;0.80;;
57891;SDS011;43708;48.828;9.166;2023-04-06T00:08:45;0.70;;;0.68;;
57891;SDS011;43708;48.828;9.166;2023-04-06T00:11:10;0.90;;;0.80;;
57891;SDS011;43708;48.828;9.166;2023-04-06T00:13:36;0.77;;;0.77;;
57891;SDS011;43708;48.828;9.166;2023-04-06T00:16:02;0.77;;;0.77;;
57891;SDS011;43708;48.828;9.166;2023-04-06T00:18:30;0.70;;;0.70;;
57891;SDS011;43708;48.828;9.166;2023-04-06T00:20:55;0.70;;;0.70;;
57891;SDS011;43708;48.828;9.166;2023-04-06T00:23:21;1.00;;;0.90;;
57891;SDS011;43708;48.828;9.166;2023-04-06T00:25:47;0.80;;;0.70;;
57891;SDS011;43708;48.828;9.166;2023-04-06T00:28:12;0.85;;;0.73;;
57891;SDS011;43708;48.828;9.166;2023-04-06T00:30:38;0.90;;;0.80;;
57891;SDS011;43708;48.828;9.166;2023-04-06T00:33:03;1.17;;;1.08;;
57891;SDS011;43708;48.828;9.166;2023-04-06T00:35:29;1.02;;;0.80;;
57891;SDS011;43708;48.828;9.166;2023-04-06T00:37:55;1.05;;;0.80;;
57891;SDS011;43708;48.828;9.166;2023-04-06T00:40:21;0.85;;;0.75;;
57891;SDS011;43708;48.828;9.166;2023-04-06T00:42:46;1.00;;;0.88;;
57891;SDS011;43708;48.828;9.166;2023-04-06T00:45:12;0.70;;;0.70;;
57891;SDS011;43708;48.828;9.166;2023-04-06T00:47:38;1.02;;;0.68;;
57891;SDS011;43708;48.828;9.166;2023-04-06T00:50:04;0.90;;;0.80;;
57891;SDS011;43708;48.828;9.166;2023-04-06T00:52:30;1.48;;;0.80;;
57891;SDS011;43708;48.828;9.166;2023-04-06T00:54:55;0.98;;;0.88;;
57891;SDS011;43708;48.828;9.166;2023-04-06T00:57:21;0.80;;;0.70;;
57891;SDS011;43708;48.828;9.166;2023-04-06T00:59:47;0.80;;;0.80;;
57891;SDS011;43708;48.828;9.166;2023-04-06T01:02:12;1.08;;;0.77;;
57891;SDS011;43708;48.828;9.166;2023-04-06T01:04:38;0.90;;;0.80;;
57891;SDS011;43708;48.828;9.166;2023-04-06T01:07:04;0.65;;;0.65;;
57891;SDS011;43708;48.828;9.166;2023-04-06T01:09:30;0.60;;;0.60;;
57891;SDS011;43708;48.828;9.166;2023-04-06T01:11:56;0.80;;;0.80;;
57891;SDS011;43708;48.828;9.166;2023-04-06T01:14:23;0.80;;;0.80;;
57891;SDS011;43708;48.828;9.166;2023-04-06T01:16:51;1.00;;;0.90;;
57891;SDS011;43708;48.828;9.166;2023-04-06T01:19:17;0.70;;;0.70;;
57891;SDS011;43708;48.828;9.166;2023-04-06T01:21:43;1.58;;;0.55;;
57891;SDS011;43708;48.828;9.166;2023-04-06T01:24:09;0.70;;;0.63;;
57891;SDS011;43708;48.828;9.166;2023-04-06T01:26:35;0.70;;;0.70;;
57891;SDS011;43708;48.828;9.166;2023-04-06T01:29:01;0.77;;;0.70;;
57891;SDS011;43708;48.828;9.166;2023-04-06T01:31:27;0.73;;;0.73;;
57891;SDS011;43708;48.828;9.166;2023-04-06T01:33:53;0.90;;;0.70;;
57891;SDS011;43708;48.828;9.166;2023-04-06T01:36:19;0.63;;;0.63;;
57891;SDS011;43708;48.828;9.166;2023-04-06T01:38:46;0.75;;;0.65;;
57891;SDS011;43708;48.828;9.166;2023-04-06T01:41:11;1.27;;;0.82;;
57891;SDS011;43708;48.828;9.166;2023-04-06T01:43:37;0.90;;;0.80;;
57891;SDS011;43708;48.828;9.166;2023-04-06T01:46:03;0.93;;;0.80;;
57891;SDS011;43708;48.828;9.166;2023-04-06T01:48:29;0.70;;;0.70;;
57891;SDS011;43708;48.828;9.166;2023-04-06T01:50:55;0.70;;;0.70;;
57891;SDS011;43708;48.828;9.166;2023-04-06T01:53:21;0.88;;;0.70;;
57891;SDS011;43708;48.828;9.166;2023-04-06T01:55:47;0.60;;;0.60;;
57891;SDS011;43708;48.828;9.166;2023-04-06T01:58:13;0.90;;;0.80;;
57891;SDS011;43708;48.828;9.166;2023-04-06T02:00:39;1.10;;;0.50;;
57891;SDS011;43708;48.828;9.166;2023-04-06T02:03:04;0.77;;;0.68;;
57891;SDS011;43708;48.828;9.166;2023-04-06T02:05:31;0.73;;;0.70;;
57891;SDS011;43708;48.828;9.166;2023-04-06T02:08:03;0.50;;;0.50;;
57891;SDS011;43708;48.828;9.166;2023-04-06T02:10:33;0.77;;;0.55;;
57891;SDS011;43708;48.828;9.166;2023-04-06T02:12:59;1.27;;;0.75;;
57891;SDS011;43708;48.828;9.166;2023-04-06T02:15:25;0.60;;;0.60;;
57891;SDS011;43708;48.828;9.166;2023-04-06T02:17:51;0.52;;;0.52;;
57891;SDS011;43708;48.828;9.166;2023-04-06T02:20:17;0.70;;;0.70;;
57891;SDS011;43708;48.828;9.166;2023-04-06T02:22:43;0.70;;;0.70;;
57891;SDS011;43708;48.828;9.166;2023-04-06T02:25:09;0.70;;;0.70;;
57891;SDS011;43708;48.828;9.166;2023-04-06T02:27:35;0.60;;;0.60;;
57891;SDS011;43708;48.828;9.166;2023-04-06T02:30:01;0.88;;;0.60;;
57891;SDS011;43708;48.828;9.166;2023-04-06T02:32:28;0.70;;;0.60;;
57891;SDS011;43708;48.828;9.166;2023-04-06T02:34:54;0.68;;;0.68;;
57891;SDS011;43708;48.828;9.166;2023-04-06T02:37:19;0.50;;;0.50;;
57891;SDS011;43708;48.828;9.166;2023-04-06T02:39:45;0.50;;;0.50;;
57891;SDS011;43708;48.828;9.166;2023-04-06T02:42:11;0.60;;;0.60;;
57891;SDS011;43708;48.828;9.166;2023-04-06T02:44:37;0.73;;;0.73;;
57891;SDS011;43708;48.828;9.166;2023-04-06T02:47:02;0.50;;;0.50;;
57891;SDS011;43708;48.828;9.166;2023-04-06T02:49:28;1.50;;;1.00;;
57891;SDS011;43708;48.828;9.166;2023-04-06T02:51:54;0.68;;;0.63;;
57891;SDS011;43708;48.828;9.166;2023-04-06T02:54:19;0.60;;;0.60;;
57891;SDS011;43708;48.828;9.166;2023-04-06T02:56:45;0.70;;;0.70;;
57891;SDS011;43708;48.828;9.166;2023-04-06T02:59:10;0.65;;;0.60;;
57891;SDS011;43708;48.828;9.166;2023-04-06T03:01:36;0.60;;;0.60;;
57891;SDS011;43708;48.828;9.166;2023-04-06T03:04:02;0.70;;;0.63;;
57891;SDS011;43708;48.828;9.166;2023-04-06T03:06:28;0.68;;;0.68;;
57891;SDS011;43708;48.828;9.166;2023-04-06T03:08:53;0.60;;;0.55;;
57891;SDS011;43708;48.828;9.166;2023-04-06T03:11:19;0.60;;;0.60;;
57891;SDS011;43708;48.828;9.166;2023-04-06T03:13:45;0.60;;;0.60;;
57891;SDS011;43708;48.828;9.166;2023-04-06T03:16:11;0.60;;;0.60;;
57891;SDS011;43708;48.828;9.166;2023-04-06T03:18:37;0.50;;;0.40;;
57891;SDS011;43708;48.828;9.166;2023-04-06T03:21:03;0.60;;;0.52;;
57891;SDS011;43708;48.828;9.166;2023-04-06T03:23:28;0.70;;;0.65;;
57891;SDS011;43708;48.828;9.166;2023-04-06T03:25:54;1.52;;;0.50;;
57891;SDS011;43708;48.828;9.166;2023-04-06T03:28:20;0.75;;;0.60;;
57891;SDS011;43708;48.828;9.166;2023-04-06T03:30:46;0.63;;;0.63;;
57891;SDS011;43708;48.828;9.166;2023-04-06T03:33:11;0.60;;;0.60;;
57891;SDS011;43708;48.828;9.166;2023-04-06T03:35:37;0.55;;;0.55;;
57891;SDS011;43708;48.828;9.166;2023-04-06T03:38:03;0.70;;;0.70;;
57891;SDS011;43708;48.828;9.166;2023-04-06T03:40:30;0.70;;;0.70;;
57891;SDS011;43708;48.828;9.166;2023-04-06T03:42:55;0.60;;;0.60;;
57891;SDS011;43708;48.828;9.166;2023-04-06T03:45:21;0.60;;;0.60;;
57891;SDS011;43708;48.828;9.166;2023-04-06T03:47:47;0.80;;;0.80;;
57891;SDS011;43708;48.828;9.166;2023-04-06T03:50:12;0.77;;;0.60;;
57891;SDS011;43708;48.828;9.166;2023-04-06T03:52:38;0.60;;;0.50;;
57891;SDS011;43708;48.828;9.166;2023-04-06T03:55:04;0.90;;;0.70;;
57891;SDS011;43708;48.828;9.166;2023-04-06T03:57:30;0.60;;;0.60;;
57891;SDS011;43708;48.828;9.166;2023-04-06T03:59:55;0.68;;;0.65;;
57891;SDS011;43708;48.828;9.166;2023-04-06T04:02:21;0.70;;;0.70;;
57891;SDS011;43708;48.828;9.166;2023-04-06T04:04:47;0.50;;;0.50;;
57891;SDS011;43708;48.828;9.166;2023-04-06T04:07:12;0.60;;;0.60;;
57891;SDS011;43708;48.828;9.166;2023-04-06T04:09:38;0.60;;;0.60;;
57891;SDS011;43708;48.828;9.166;2023-04-06T04:12:04;0.60;;;0.60;;
57891;SDS011;43708;48.828;9.166;2023-04-06T04:14:30;0.60;;;0.60;;
57891;SDS011;43708;48.828;9.166;2023-04-06T04:16:55;0.40;;;0.40;;
57891;SDS011;43708;48.828;9.166;2023-04-06T04:19:21;0.55;;;0.55;;
57891;SDS011;43708;48.828;9.166;2023-04-06T04:21:46;0.70;;;0.70;;
57891;SDS011;43708;48.828;9.166;2023-04-06T04:24:12;0.70;;;0.70;;
57891;SDS011;43708;48.828;9.166;2023-04-06T04:26:38;0.60;;;0.60;;
57891;SDS011;43708;48.828;9.166;2023-04-06T04:29:05;0.57;;;0.57;;
57891;SDS011;43708;48.828;9.166;2023-04-06T04:31:31;0.70;;;0.70;;
57891;SDS011;43708;48.828;9.166;2023-04-06T04:33:57;0.50;;;0.50;;
57891;SDS011;43708;48.828;9.166;2023-04-06T04:36:23;0.68;;;0.68;;
57891;SDS011;43708;48.828;9.166;2023-04-06T04:38:50;0.60;;;0.60;;
57891;SDS011;43708;48.828;9.166;2023-04-06T04:41:16;0.60;;;0.60;;
57891;SDS011;43708;48.828;9.166;2023-04-06T04:43:42;0.70;;;0.70;;
57891;SDS011;43708;48.828;9.166;2023-04-06T04:46:08;0.60;;;0.60;;
57891;SDS011;43708;48.828;9.166;2023-04-06T04:48:33;0.70;;;0.70;;
57891;SDS011;43708;48.828;9.166;2023-04-06T04:50:59;0.70;;;0.70;;
57891;SDS011;43708;48.828;9.166;2023-04-06T04:53:25;0.68;;;0.63;;
57891;SDS011;43708;48.828;9.166;2023-04-06T04:55:50;0.73;;;0.73;;
57891;SDS011;43708;48.828;9.166;2023-04-06T04:58:16;0.70;;;0.70;;
57891;SDS011;43708;48.828;9.166;2023-04-06T05:00:43;0.60;;;0.57;;
57891;SDS011;43708;48.828;9.166;2023-04-06T05:03:09;0.57;;;0.57;;
57891;SDS011;43708;48.828;9.166;2023-04-06T05:05:39;0.70;;;0.70;;
57891;SDS011;43708;48.828;9.166;2023-04-06T05:08:04;0.50;;;0.50;;
57891;SDS011;43708;48.828;9.166;2023-04-06T05:10:30;1.13;;;0.70;;
57891;SDS011;43708;48.828;9.166;2023-04-06T05:12:55;0.90;;;0.90;;
57891;SDS011;43708;48.828;9.166;2023-04-06T05:15:21;0.60;;;0.60;;
57891;SDS011;43708;48.828;9.166;2023-04-06T05:17:47;0.52;;;0.50;;
57891;SDS011;43708;48.828;9.166;2023-04-06T05:20:13;0.60;;;0.60;;
57891;SDS011;43708;48.828;9.166;2023-04-06T05:22:39;0.68;;;0.63;;
57891;SDS011;43708;48.828;9.166;2023-04-06T05:25:04;0.70;;;0.70;;
57891;SDS011;43708;48.828;9.166;2023-04-06T05:27:30;0.63;;;0.60;;
57891;SDS011;43708;48.828;9.166;2023-04-06T05:29:56;0.75;;;0.70;;
57891;SDS011;43708;48.828;9.166;2023-04-06T05:32:21;0.60;;;0.60;;
57891;SDS011;43708;48.828;9.166;2023-04-06T05:34:49;0.60;;;0.60;;
57891;SDS011;43708;48.828;9.166;2023-04-06T05:37:15;0.77;;;0.77;;
57891;SDS011;43708;48.828;9.166;2023-04-06T05:39:41;0.80;;;0.80;;
57891;SDS011;43708;48.828;9.166;2023-04-06T05:42:07;0.60;;;0.60;;
57891;SDS011;43708;48.828;9.166;2023-04-06T05:44:32;0.73;;;0.60;;
57891;SDS011;43708;48.828;9.166;2023-04-06T05:46:58;0.77;;;0.77;;
57891;SDS011;43708;48.828;9.166;2023-04-06T05:49:24;0.73;;;0.70;;
57891;SDS011;43708;48.828;9.166;2023-04-06T05:51:49;0.60;;;0.60;;
57891;SDS011;43708;48.828;9.166;2023-04-06T05:54:15;0.60;;;0.60;;
57891;SDS011;43708;48.828;9.166;2023-04-06T05:56:41;0.68;;;0.60;;
57891;SDS011;43708;48.828;9.166;2023-04-06T05:59:07;0.75;;;0.60;;
57891;SDS011;43708;48.828;9.166;2023-04-06T06:01:32;0.63;;;0.60;;
57891;SDS011;43708;48.828;9.166;2023-04-06T06:04:02;0.50;;;0.50;;
57891;SDS011;43708;48.828;9.166;2023-04-06T06:06:28;0.50;;;0.50;;
57891;SDS011;43708;48.828;9.166;2023-04-06T06:08:57;0.90;;;0.70;;
57891;SDS011;43708;48.828;9.166;2023-04-06T06:11:27;0.52;;;0.52;;
57891;SDS011;43708;48.828;9.166;2023-04-06T06:13:53;0.70;;;0.70;;
57891;SDS011;43708;48.828;9.166;2023-04-06T06:16:18;1.45;;;0.57;;
57891;SDS011;43708;48.828;9.166;2023-04-06T06:18:44;0.60;;;0.60;;
57891;SDS011;43708;48.828;9.166;2023-04-06T06:21:10;0.70;;;0.50;;
57891;SDS011;43708;48.828;9.166;2023-04-06T06:23:39;0.90;;;0.50;;
57891;SDS011;43708;48.828;9.166;2023-04-06T06:26:06;0.65;;;0.65;;
57891;SDS011;43708;48.828;9.166;2023-04-06T06:28:32;0.40;;;0.40;;
57891;SDS011;43708;48.828;9.166;2023-04-06T06:30:58;0.50;;;0.50;;
57891;SDS011;43708;48.828;9.166;2023-04-06T06:33:24;1.48;;;0.52;;
57891;SDS011;43708;48.828;9.166;2023-04-06T06:35:51;1.50;;;0.63;;
57891;SDS011;43708;48.828;9.166;2023-04-06T06:38:17;0.70;;;0.52;;
57891;SDS011;43708;48.828;9.166;2023-04-06T06:40:42;0.73;;;0.52;;
57891;SDS011;43708;48.828;9.166;2023-04-06T06:43:08;0.65;;;0.50;;
57891;SDS011;43708;48.828;9.166;2023-04-06T06:45:34;0.77;;;0.52;;
57891;SDS011;43708;48.828;9.166;2023-04-06T06:47:59;0.70;;;0.70;;
57891;SDS011;43708;48.828;9.166;2023-04-06T06:50:25;0.80;;;0.77;;
57891;SDS011;43708;48.828;9.166;2023-04-06T06:52:51;0.50;;;0.47;;
57891;SDS011;43708;48.828;9.166;2023-04-06T06:55:17;1.50;;;0.52;;
57891;SDS011;43708;48.828;9.166;2023-04-06T06:57:44;0.95;;;0.50;;
57891;SDS011;43708;48.828;9.166;2023-04-06T07:00:11;0.90;;;0.90;;
57891;SDS011;43708;48.828;9.166;2023-04-06T07:02:38;0.60;;;0.60;;
57891;SDS011;43708;48.828;9.166;2023-04-06T07:05:04;0.60;;;0.60;;
57891;SDS011;43708;48.828;9.166;2023-04-06T07:07:33;0.63;;;0.55;;
57891;SDS011;43708;48.828;9.166;2023-04-06T07:09:59;0.70;;;0.60;;
57891;SDS011;43708;48.828;9.166;2023-04-06T07:12:25;0.63;;;0.63;;
57891;SDS011;43708;48.828;9.166;2023-04-06T07:14:51;0.65;;;0.65;;
57891;SDS011;43708;48.828;9.166;2023-04-06T07:17:17;0.98;;;0.65;;
57891;SDS011;43708;48.828;9.166;2023-04-06T07:19:43;0.57;;;0.57;;
57891;SDS011;43708;48.828;9.166;2023-04-06T07:22:08;0.60;;;0.60;;
57891;SDS011;43708;48.828;9.166;2023-04-06T07:24:34;0.60;;;0.60;;
57891;SDS011;43708;48.828;9.166;2023-04-06T07:27:00;0.50;;;0.50;;
57891;SDS011;43708;48.828;9.166;2023-04-06T07:29:26;0.70;;;0.70;;
57891;SDS011;43708;48.828;9.166;2023-04-06T07:31:52;0.52;;;0.52;;
57891;SDS011;43708;48.828;9.166;2023-04-06T07:34:18;1.17;;;0.50;;
57891;SDS011;43708;48.828;9.166;2023-04-06T07:36:43;0.98;;;0.80;;
57891;SDS011;43708;48.828;9.166;2023-04-06T07:39:09;0.40;;;0.40;;
57891;SDS011;43708;48.828;9.166;2023-04-06T07:41:35;0.60;;;0.60;;
57891;SDS011;43708;48.828;9.166;2023-04-06T07:44:01;0.80;;;0.65;;
57891;SDS011;43708;48.828;9.166;2023-04-06T07:46:28;0.80;;;0.60;;
57891;SDS011;43708;48.828;9.166;2023-04-06T07:48:53;0.45;;;0.43;;
57891;SDS011;43708;48.828;9.166;2023-04-06T07:51:19;1.08;;;0.73;;
57891;SDS011;43708;48.828;9.166;2023-04-06T07:53:45;0.80;;;0.70;;
57891;SDS011;43708;48.828;9.166;2023-04-06T07:56:11;0.80;;;0.73;;
57891;SDS011;43708;48.828;9.166;2023-04-06T07:58:40;0.73;;;0.73;;
57891;SDS011;43708;48.828;9.166;2023-04-06T08:01:06;0.50;;;0.50;;
57891;SDS011;43708;48.828;9.166;2023-04-06T08:03:33;0.80;;;0.70;;
57891;SDS011;43708;48.828;9.166;2023-04-06T08:05:59;1.35;;;0.70;;
57891;SDS011;43708;48.828;9.166;2023-04-06T08:08:25;0.70;;;0.70;;
57891;SDS011;43708;48.828;9.166;2023-04-06T08:10:51;0.95;;;0.60;;
57891;SDS011;43708;48.828;9.166;2023-04-06T08:13:16;0.98;;;0.63;;
57891;SDS011;43708;48.828;9.166;2023-04-06T08:15:42;1.08;;;0.80;;
57891;SDS011;43708;48.828;9.166;2023-04-06T08:18:08;0.70;;;0.70;;
57891;SDS011;43708;48.828;9.166;2023-04-06T08:20:34;0.68;;;0.60;;
57891;SDS011;43708;48.828;9.166;2023-04-06T08:23:00;0.95;;;0.70;;
57891;SDS011;43708;48.828;9.166;2023-04-06T08:25:25;0.63;;;0.63;;
57891;SDS011;43708;48.828;9.166;2023-04-06T08:27:51;0.80;;;0.70;;
57891;SDS011;43708;48.828;9.166;2023-04-06T08:30:17;0.70;;;0.70;;
57891;SDS011;43708;48.828;9.166;2023-04-06T08:32:44;0.80;;;0.70;;
57891;SDS011;43708;48.828;9.166;2023-04-06T08:35:10;0.63;;;0.60;;
57891;SDS011;43708;48.828;9.166;2023-04-06T08:37:36;0.45;;;0.45;;
57891;SDS011;43708;48.828;9.166;2023-04-06T08:40:01;1.30;;;0.60;;
57891;SDS011;43708;48.828;9.166;2023-04-06T08:42:28;0.60;;;0.60;;
57891;SDS011;43708;48.828;9.166;2023-04-06T08:44:57;0.82;;;0.80;;
57891;SDS011;43708;48.828;9.166;2023-04-06T08:47:23;0.70;;;0.70;;
57891;SDS011;43708;48.828;9.166;2023-04-06T08:49:49;0.75;;;0.70;;
57891;SDS011;43708;48.828;9.166;2023-04-06T08:52:17;0.70;;;0.70;;
57891;SDS011;43708;48.828;9.166;2023-04-06T08:54:43;0.88;;;0.75;;
57891;SDS011;43708;48.828;9.166;2023-04-06T08:57:09;0.93;;;0.73;;
57891;SDS011;43708;48.828;9.166;2023-04-06T08:59:35;0.60;;;0.60;;
57891;SDS011;43708;48.828;9.166;2023-04-06T09:02:04;0.70;;;0.60;;
57891;SDS011;43708;48.828;9.166;2023-04-06T09:04:31;0.55;;;0.55;;
57891;SDS011;43708;48.828;9.166;2023-04-06T09:06:58;0.65;;;0.52;;
57891;SDS011;43708;48.828;9.166;2023-04-06T09:09:24;4.82;;;0.80;;
57891;SDS011;43708;48.828;9.166;2023-04-06T09:11:50;0.70;;;0.70;;
57891;SDS011;43708;48.828;9.166;2023-04-06T09:14:17;0.50;;;0.50;;
57891;SDS011;43708;48.828;9.166;2023-04-06T09:16:59;0.70;;;0.60;;
57891;SDS011;43708;48.828;9.166;2023-04-06T09:19:25;0.90;;;0.60;;
57891;SDS011;43708;48.828;9.166;2023-04-06T09:22:00;1.00;;;0.65;;
57891;SDS011;43708;48.828;9.166;2023-04-06T09:24:43;0.70;;;0.50;;
57891;SDS011;43708;48.828;9.166;2023-04-06T09:27:10;0.88;;;0.88;;
57891;SDS011;43708;48.828;9.166;2023-04-06T09:29:36;0.70;;;0.70;;
57891;SDS011;43708;48.828;9.166;2023-04-06T09:32:05;1.20;;;1.10;;
57891;SDS011;43708;48.828;9.166;2023-04-06T09:34:33;0.85;;;0.82;;
57891;SDS011;43708;48.828;9.166;2023-04-06T09:36:59;1.13;;;1.00;;
57891;SDS011;43708;48.828;9.166;2023-04-06T09:39:25;1.10;;;1.00;;
57891;SDS011;43708;48.828;9.166;2023-04-06T09:41:51;0.80;;;0.80;;
57891;SDS011;43708;48.828;9.166;2023-04-06T09:44:19;1.02;;;0.93;;
57891;SDS011;43708;48.828;9.166;2023-04-06T09:46:45;0.70;;;0.70;;
57891;SDS011;43708;48.828;9.166;2023-04-06T09:49:12;1.27;;;1.10;;
57891;SDS011;43708;48.828;9.166;2023-04-06T09:51:39;1.00;;;0.82;;
57891;SDS011;43708;48.828;9.166;2023-04-06T09:54:06;0.80;;;0.80;;
57891;SDS011;43708;48.828;9.166;2023-04-06T09:59:23;1.08;;;1.00;;
57891;SDS011;43708;48.828;9.166;2023-04-06T10:02:01;1.10;;;1.00;;
57891;SDS011;43708;48.828;9.166;2023-04-06T10:04:36;0.82;;;0.80;;
57891;SDS011;43708;48.828;9.166;2023-04-06T10:07:03;0.80;;;0.80;;
57891;SDS011;43708;48.828;9.166;2023-04-06T10:09:31;2.25;;;0.93;;
57891;SDS011;43708;48.828;9.166;2023-04-06T10:12:04;1.30;;;1.20;;
57891;SDS011;43708;48.828;9.166;2023-04-06T10:14:31;1.25;;;1.00;;
57891;SDS011;43708;48.828;9.166;2023-04-06T10:17:03;2.25;;;1.23;;
57891;SDS011;43708;48.828;9.166;2023-04-06T10:19:52;0.98;;;0.80;;
57891;SDS011;43708;48.828;9.166;2023-04-06T10:22:24;1.10;;;1.00;;
57891;SDS011;43708;48.828;9.166;2023-04-06T10:24:57;0.85;;;0.77;;
57891;SDS011;43708;48.828;9.166;2023-04-06T10:27:27;1.10;;;1.00;;
57891;SDS011;43708;48.828;9.166;2023-04-06T10:29:54;1.35;;;1.00;;
57891;SDS011;43708;48.828;9.166;2023-04-06T10:32:34;1.27;;;1.17;;
57891;SDS011;43708;48.828;9.166;2023-04-06T10:35:10;0.85;;;0.77;;
57891;SDS011;43708;48.828;9.166;2023-04-06T10:38:04;1.20;;;0.80;;
57891;SDS011;43708;48.828;9.166;2023-04-06T10:40:30;1.63;;;1.10;;
57891;SDS011;43708;48.828;9.166;2023-04-06T10:45:54;1.35;;;1.10;;
57891;SDS011;43708;48.828;9.166;2023-04-06T10:48:21;1.23;;;1.00;;
57891;SDS011;43708;48.828;9.166;2023-04-06T10:50:51;1.42;;;1.15;;
57891;SDS011;43708;48.828;9.166;2023-04-06T10:53:26;4.03;;;1.25;;
57891;SDS011;43708;48.828;9.166;2023-04-06T10:55:54;0.90;;;0.90;;
57891;SDS011;43708;48.828;9.166;2023-04-06T10:58:23;1.67;;;1.17;;
57891;SDS011;43708;48.828;9.166;2023-04-06T11:00:50;1.67;;;1.23;;
57891;SDS011;43708;48.828;9.166;2023-04-06T11:03:16;1.88;;;1.23;;
57891;SDS011;43708;48.828;9.166;2023-04-06T11:05:45;3.40;;;1.35;;
57891;SDS011;43708;48.828;9.166;2023-04-06T11:08:28;1.50;;;1.40;;
57891;SDS011;43708;48.828;9.166;2023-04-06T11:11:09;1.48;;;1.17;;
57891;SDS011;43708;48.828;9.166;2023-04-06T11:13:53;1.13;;;1.02;;
57891;SDS011;43708;48.828;9.166;2023-04-06T11:16:26;2.45;;;1.33;;
57891;SDS011;43708;48.828;9.166;2023-04-06T11:18:54;1.30;;;0.90;;
57891;SDS011;43708;48.828;9.166;2023-04-06T11:21:37;1.30;;;0.90;;
57891;SDS011;43708;48.828;9.166;2023-04-06T11:24:22;1.23;;;1.13;;
57891;SDS011;43708;48.828;9.166;2023-04-06T11:26:49;1.33;;;1.23;;
57891;SDS011;43708;48.828;9.166;2023-04-06T11:29:18;2.85;;;1.10;;
57891;SDS011;43708;48.828;9.166;2023-04-06T11:31:45;2.17;;;1.40;;
57891;SDS011;43708;48.828;9.166;2023-04-06T11:34:13;1.63;;;1.10;;
57891;SDS011;43708;48.828;9.166;2023-04-06T11:36:46;1.40;;;1.02;;
57891;SDS011;43708;48.828;9.166;2023-04-06T11:39:13;3.05;;;1.20;;
57891;SDS011;43708;48.828;9.166;2023-04-06T11:41:50;1.27;;;1.10;;
57891;SDS011;43708;48.828;9.166;2023-04-06T11:44:31;1.80;;;1.13;;
57891;SDS011;43708;48.828;9.166;2023-04-06T11:47:05;1.33;;;1.20;;
57891;SDS011;43708;48.828;9.166;2023-04-06T11:49:32;1.50;;;1.17;;
57891;SDS011;43708;48.828;9.166;2023-04-06T11:52:01;1.25;;;1.15;;
57891;SDS011;43708;48.828;9.166;2023-04-06T11:54:31;1.15;;;1.05;;
57891;SDS011;43708;48.828;9.166;2023-04-06T11:57:02;1.73;;;1.20;;
57891;SDS011;43708;48.828;9.166;2023-04-06T11:59:29;1.15;;;0.80;;
57891;SDS011;43708;48.828;9.166;2023-04-06T12:01:55;1.98;;;1.33;;
57891;SDS011;43708;48.828;9.166;2023-04-06T12:04:21;1.05;;;1.02;;
57891;SDS011;43708;48.828;9.166;2023-04-06T12:06:47;1.73;;;1.25;;
57891;SDS011;43708;48.828;9.166;2023-04-06T12:09:13;1.38;;;1.27;;
57891;SDS011;43708;48.828;9.166;2023-04-06T12:11:39;1.30;;;1.10;;
57891;SDS011;43708;48.828;9.166;2023-04-06T12:14:05;1.38;;;1.05;;
57891;SDS011;43708;48.828;9.166;2023-04-06T12:16:32;1.27;;;1.15;;
57891;SDS011;43708;48.828;9.166;2023-04-06T12:18:59;1.67;;;1.00;;
57891;SDS011;43708;48.828;9.166;2023-04-06T12:21:26;1.25;;;1.15;;
57891;SDS011;43708;48.828;9.166;2023-04-06T12:23:53;1.20;;;1.10;;
57891;SDS011;43708;48.828;9.166;2023-04-06T12:26:19;1.20;;;1.10;;
57891;SDS011;43708;48.828;9.166;2023-04-06T12:28:45;1.42;;;1.13;;
57891;SDS011;43708;48.828;9.166;2023-04-06T12:31:14;3.03;;;1.23;;
57891;SDS011;43708;48.828;9.166;2023-04-06T12:33:41;1.33;;;1.23;;
57891;SDS011;43708;48.828;9.166;2023-04-06T12:36:16;1.20;;;1.10;;
57891;SDS011;43708;48.828;9.166;2023-04-06T12:38:49;1.20;;;1.10;;
57891;SDS011;43708;48.828;9.166;2023-04-06T12:41:16;1.55;;;1.23;;
57891;SDS011;43708;48.828;9.166;2023-04-06T12:43:43;1.38;;;1.27;;
57891;SDS011;43708;48.828;9.166;2023-04-06T12:46:09;1.10;;;1.00;;
57891;SDS011;43708;48.828;9.166;2023-04-06T12:48:35;1.05;;;0.95;;
57891;SDS011;43708;48.828;9.166;2023-04-06T12:51:02;1.30;;;1.20;;
57891;SDS011;43708;48.828;9.166;2023-04-06T12:53:31;1.35;;;1.25;;
57891;SDS011;43708;48.828;9.166;2023-04-06T12:55:58;1.70;;;1.10;;
57891;SDS011;43708;48.828;9.166;2023-04-06T12:58:24;1.17;;;1.00;;
57891;SDS011;43708;48.828;9.166;2023-04-06T13:00:53;1.10;;;0.98;;
57891;SDS011;43708;48.828;9.166;2023-04-06T13:03:21;1.13;;;1.02;;
57891;SDS011;43708;48.828;9.166;2023-04-06T13:05:47;1.25;;;1.15;;
57891;SDS011;43708;48.828;9.166;2023-04-06T13:08:15;1.10;;;1.00;;
57891;SDS011;43708;48.828;9.166;2023-04-06T13:10:46;1.67;;;1.30;;
57891;SDS011;43708;48.828;9.166;2023-04-06T13:13:13;1.42;;;1.00;;
57891;SDS011;43708;48.828;9.166;2023-04-06T13:15:39;1.60;;;1.20;;
57891;SDS011;43708;48.828;9.166;2023-04-06T13:18:05;1.30;;;1.20;;
57891;SDS011;43708;48.828;9.166;2023-04-06T13:20:31;0.95;;;0.90;;
57891;SDS011;43708;48.828;9.166;2023-04-06T13:22:57;1.20;;;1.10;;
57891;SDS011;43708;48.828;9.166;2023-04-06T13:25:22;1.23;;;1.13;;
57891;SDS011;43708;48.828;9.166;2023-04-06T13:27:48;1.35;;;1.25;;
57891;SDS011;43708;48.828;9.166;2023-04-06T13:30:14;1.15;;;1.00;;
57891;SDS011;43708;48.828;9.166;2023-04-06T13:32:40;1.00;;;0.90;;
57891;SDS011;43708;48.828;9.166;2023-04-06T13:35:06;1.40;;;1.23;;
57891;SDS011;43708;48.828;9.166;2023-04-06T13:37:33;1.08;;;0.98;;
57891;SDS011;43708;48.828;9.166;2023-04-06T13:39:59;1.95;;;1.20;;
57891;SDS011;43708;48.828;9.166;2023-04-06T13:42:27;1.25;;;1.15;;
57891;SDS011;43708;48.828;9.166;2023-04-06T13:44:53;1.08;;;1.00;;
57891;SDS011;43708;48.828;9.166;2023-04-06T13:47:18;1.15;;;1.05;;
57891;SDS011;43708;48.828;9.166;2023-04-06T13:49:45;1.10;;;1.00;;
57891;SDS011;43708;48.828;9.166;2023-04-06T13:52:11;1.30;;;1.20;;
57891;SDS011;43708;48.828;9.166;2023-04-06T13:54:37;0.90;;;0.90;;
57891;SDS011;43708;48.828;9.166;2023-04-06T13:57:03;1.25;;;1.15;;
57891;SDS011;43708;48.828;9.166;2023-04-06T13:59:35;0.95;;;0.95;;
57891;SDS011;43708;48.828;9.166;2023-04-06T14:02:02;1.13;;;1.02;;
57891;SDS011;43708;48.828;9.166;2023-04-06T14:04:28;1.00;;;0.90;;
57891;SDS011;43708;48.828;9.166;2023-04-06T14:06:55;1.20;;;1.10;;
57891;SDS011;43708;48.828;9.166;2023-04-06T14:09:21;1.10;;;1.00;;
57891;SDS011;43708;48.828;9.166;2023-04-06T14:11:47;1.10;;;1.00;;
57891;SDS011;43708;48.828;9.166;2023-04-06T14:14:12;1.40;;;1.30;;
57891;SDS011;43708;48.828;9.166;2023-04-06T14:16:38;0.80;;;0.80;;
57891;SDS011;43708;48.828;9.166;2023-04-06T14:19:03;1.08;;;1.00;;
57891;SDS011;43708;48.828;9.166;2023-04-06T14:21:29;0.98;;;0.90;;
57891;SDS011;43708;48.828;9.166;2023-04-06T14:23:55;0.85;;;0.85;;
57891;SDS011;43708;48.828;9.166;2023-04-06T14:26:21;0.93;;;0.93;;
57891;SDS011;43708;48.828;9.166;2023-04-06T14:28:47;0.93;;;0.90;;
57891;SDS011;43708;48.828;9.166;2023-04-06T14:31:13;1.20;;;1.08;;
57891;SDS011;43708;48.828;9.166;2023-04-06T14:33:41;1.50;;;0.82;;
57891;SDS011;43708;48.828;9.166;2023-04-06T14:36:07;1.08;;;1.00;;
57891;SDS011;43708;48.828;9.166;2023-04-06T14:38:33;1.10;;;1.00;;
57891;SDS011;43708;48.828;9.166;2023-04-06T14:40:59;1.05;;;0.95;;
57891;SDS011;43708;48.828;9.166;2023-04-06T14:43:25;0.98;;;0.85;;
57891;SDS011;43708;48.828;9.166;2023-04-06T14:45:51;1.00;;;1.00;;
57891;SDS011;43708;48.828;9.166;2023-04-06T14:48:17;1.10;;;1.00;;
57891;SDS011;43708;48.828;9.166;2023-04-06T14:50:53;0.85;;;0.85;;
57891;SDS011;43708;48.828;9.166;2023-04-06T14:53:19;0.93;;;0.93;;